KFLG/FLG METAR and TAF weather

Enter ICAO airport designator
Station Type Date Time Source
KFLG METAR 2020/07/10 23:57 UTC NOAA

KFLG 102357Z 30007KT 260V360 10SM CLR 30/04 A3038 RMK AO2 SLP170 T03000044 10317 20278 56012


Station Type Date Time Source
KFLG Decoded METAR 2020/07/10 23:57 UTC NOAA

FLAGSTAFF PULLIAM AIRPORT, AZ, United States (KFLG) 35-08N 111-40W 2134M
Jul 10, 2020 - 07:57 PM EDT / 2020.07.10 2357 UTC
Wind: from the WNW (300 degrees) at 8 MPH (7 KT) (direction variable):0
Visibility: 10 mile(s):0
Sky conditions: clear
Temperature: 86.0 F (30.0 C)
Dew Point: 39.9 F (4.4 C)
Relative Humidity: 19%
Pressure (altimeter): 30.38 in. Hg (1028 hPa)
Pressure tendency: 0.04 inches (1.2 hPa) lower than three hours ago
ob: KFLG 102357Z 30007KT 260V360 10SM CLR 30/04 A3038 RMK AO2 SLP170 T03000044 10317 20278 56012
cycle: 0

Station Type Date Time Source
KFLG TAF 2020/07/10 21:04 UTC NOAA

TAF
AMD KFLG 102102Z 1021/1118 25010G16KT P6SM SCT080
FM110100 VRB05KT P6SM SCT100

Example: see airport list